x

West Sea Otter (46204) Wave Buoy

4:00am - Mon 20th Feb 2017 All times are PST. -8 hours from GMT.

  • Sig Wave height 6.6ft
  • Peak Period 14s
  • Wind
    9mph, 16mph gusts
  • Sea Temp 47°f
  • 空気 Temp 42°f
  • Sea Pressure 1000.2mb
  • West Sea Otter
  • West Sea Otter

More Historic Weather Station data

Upgrade to MSW Pro to gain access to the past 30 days of data for over 8000 Wavebouys and Weather Stations around the globe.

Join Pro

Comparision Forecast

View Surf forecast
   
Mon 02/20 4:00am 6.5ft 14s 9 16 mph 1000.2mb 47f 42f
3:00am 6.5ft 14s 11 13 mph 1000.2mb 46f 43f
2:00am 6ft 13s 11 16 mph 1000mb 46f 43f
1:00am 6ft 15s 9 13 mph 999.8mb 46f 42f
12:00am 5.5ft 16s 9 13 mph 999.3mb 46f 43f
Sun 02/19 11:00pm 6ft 16s 13 16 mph 998.9mb 46f 42f
10:00pm 6ft 15s 7 11 mph 998.6mb 47f 43f
9:00pm 6ft 16s 7 9 mph 998mb 47f 43f
8:00pm 7ft 16s 4 7 mph 997.7mb 47f 43f
7:00pm 5ft 16s 2
mph
997.4mb 46f 43f
6:00pm 5ft 17s 4 7 mph 997.1mb 47f 43f
5:00pm 5ft 16s 4 7 mph 996.9mb 47f 43f
4:00pm 5ft 17s 2 4 mph 996.7mb 47f 43f
3:00pm 4.5ft 18s 2 4 mph 996.4mb 47f 43f
2:00pm 4ft 18s 2 4 mph 996.3mb 47f 43f
1:00pm 3.5ft 18s 4 7 mph 996.3mb 47f 41f
12:00pm 3.5ft 10s 7 9 mph 996.2mb 47f 43f
11:00am 3.5ft 11s 9 11 mph 995.8mb 47f 43f
10:00am 3.5ft 11s 2 4 mph 995.5mb 46f 43f
9:00am 4ft 11s 2 4 mph 995.2mb 46f 42f
8:00am 4ft 11s 2 4 mph 994.9mb 46f 42f
7:00am 3.5ft 11s  -  2 mph 994.8mb 46f 41f
6:00am 4ft 11s 4
mph
994.7mb 46f 42f
5:00am 4ft 12s 4 7 mph 994.6mb 46f 42f
4:00am 4ft 13s 7 9 mph 994.7mb 46f 41f
3:00am 4.5ft 11s 4 9 mph 994.8mb 46f 41f
2:00am 4.5ft 11s 4 7 mph 994.9mb 46f 41f
1:00am 4.5ft 12s 2 4 mph 995mb 46f 41f
12:00am 4.5ft 11s 4 7 mph 995mb 46f 41f
Sat 02/18 11:00pm 4.5ft 12s 7 9 mph 995mb 46f 41f
10:00pm 4.5ft 11s 4 7 mph 995mb 46f 40f
9:00pm 4.5ft 11s 4 7 mph 994.7mb 46f 42f
8:00pm 4.5ft 11s 2 4 mph 994.5mb 46f 42f
7:00pm 4.5ft 10s 7 9 mph 994.4mb 46f 42f
6:00pm 4.5ft 11s 7 9 mph 994.4mb 46f 42f
5:00pm 5ft 12s 9 11 mph 994.6mb 46f 42f
4:00pm 5ft 10s 9
mph
995.1mb 46f 42f
3:00pm 5ft 10s 7 11 mph 995.5mb 46f 42f
2:00pm 5ft 11s 9 11 mph 995.6mb 46f 42f
1:00pm 5ft 11s 9 13 mph 996.1mb 46f 41f
12:00pm 5.5ft 10s 9 13 mph 996.6mb 46f 41f
11:00am 5.5ft 11s 9 13 mph 997.1mb 46f 41f
10:00am 6ft 11s 11 13 mph 997.5mb 46f 41f
9:00am 6ft 11s 9 13 mph 998mb 46f 41f
8:00am 6ft 11s 11 13 mph 998.6mb 46f 41f
7:00am 6ft 11s 13 16 mph 999.2mb 46f 41f
6:00am 6.5ft 12s 13 18 mph 999.9mb 46f 42f
5:00am 6.5ft 11s 13 16 mph 1000.7mb 46f 42f
4:00am 6ft 10s 16 18 mph 1001.4mb 46f 42f
3:00am 6.5ft 11s 16 20 mph 1002mb 46f 43f
2:00am 7ft 11s 16 20 mph 1002.3mb 46f 43f
1:00am 6ft 10s 18 22 mph 1002.8mb 46f 43f
12:00am 6.5ft 11s 18 22 mph 1003.4mb 46f 44f
Fri 02/17 10:00pm 6.5ft 10s 18 20 mph 1005.3mb 46f 43f
9:00pm 7ft 12s 18 22 mph 1005.4mb 46f 44f
8:00pm 6.5ft 11s 18 22 mph 1005.5mb 46f 44f
7:00pm 6ft 10s 18 22 mph 1006mb 46f 44f
6:00pm 7ft 11s 18 20 mph 1006.3mb 46f 44f
5:00pm 7ft 11s 18 22 mph 1006.3mb 46f 44f
4:00pm 6.5ft 11s 16 20 mph 1006.7mb 46f 44f
3:00pm 6.5ft 12s 13 18 mph 1007mb 46f 43f
2:00pm 7ft 11s 13 16 mph 1007mb 46f 43f
1:00pm 7ft 12s 16 20 mph 1007.2mb 46f 43f
12:00pm 7ft 10s 18 20 mph 1007.2mb 46f 44f
11:00am 7ft 10s 16 20 mph 1007.2mb 46f 43f
10:00am 7.5ft 10s 16 20 mph 1007.1mb 46f 43f
9:00am 7.5ft 11s 11 16 mph 1006.8mb 46f 44f
8:00am 9ft 11s 16 20 mph 1006.2mb 46f 43f
7:00am 8ft 11s 13 16 mph 1005.8mb 46f 44f
6:00am 8.5ft 11s 16 18 mph 1005.4mb 46f 44f
5:00am 8.5ft 11s 13 18 mph 1005.1mb 46f 44f
4:00am 8ft 11s 13 16 mph 1004.7mb 46f 44f
3:00am 9ft 12s 7 9 mph 1004.5mb 46f 44f
2:00am 8ft 11s 13 18 mph 1003.9mb 46f 44f
1:00am 9.5ft 12s 18 20 mph 1003.7mb 46f 45f
12:00am 9ft 11s 16 20 mph 1003.2mb 46f 45f
Thu 02/16 11:00pm 9.5ft 11s 13 18 mph 1002.7mb 46f 45f
10:00pm 9ft 11s 16 18 mph 1002.1mb 46f 44f
9:00pm 10ft 10s 13 16 mph 1001.4mb 46f 44f
8:00pm 11ft 11s 11 16 mph 1000.7mb 46f 44f
7:00pm 11ft 10s 9 13 mph 1000.1mb 46f 44f
6:00pm 12ft 12s 18 22 mph 999.2mb 46f 44f
5:00pm 11ft 12s 13 16 mph 998.3mb 46f 45f
4:00pm 12ft 8s 13 18 mph 997.4mb 46f 45f
3:00pm 11ft 11s 16 18 mph 996.2mb 47f 45f
2:00pm 11ft 12s 16 20 mph 995.3mb 47f 45f